sensor_id;sensor_type;location;lat;lon;timestamp;P1;durP1;ratioP1;P2;durP2;ratioP2
19406;SDS011;9839;53.364;-1.204;2023-05-23T00:01:40;5.75;;;2.35;;
19406;SDS011;9839;53.364;-1.204;2023-05-23T00:04:07;5.95;;;2.22;;
19406;SDS011;9839;53.364;-1.204;2023-05-23T00:06:33;8.70;;;2.60;;
19406;SDS011;9839;53.364;-1.204;2023-05-23T00:08:58;8.55;;;2.58;;
19406;SDS011;9839;53.364;-1.204;2023-05-23T00:11:24;6.40;;;2.47;;
19406;SDS011;9839;53.364;-1.204;2023-05-23T00:13:54;4.20;;;2.72;;
19406;SDS011;9839;53.364;-1.204;2023-05-23T00:16:21;7.85;;;1.92;;
19406;SDS011;9839;53.364;-1.204;2023-05-23T00:18:47;5.00;;;2.60;;
19406;SDS011;9839;53.364;-1.204;2023-05-23T00:21:14;4.10;;;2.13;;
19406;SDS011;9839;53.364;-1.204;2023-05-23T00:23:39;7.45;;;2.65;;
19406;SDS011;9839;53.364;-1.204;2023-05-23T00:26:06;8.43;;;2.65;;
19406;SDS011;9839;53.364;-1.204;2023-05-23T00:28:32;6.78;;;2.55;;
19406;SDS011;9839;53.364;-1.204;2023-05-23T00:30:58;7.55;;;2.80;;
19406;SDS011;9839;53.364;-1.204;2023-05-23T00:33:23;7.35;;;2.58;;
19406;SDS011;9839;53.364;-1.204;2023-05-23T00:35:49;7.38;;;2.70;;
19406;SDS011;9839;53.364;-1.204;2023-05-23T00:38:15;6.50;;;2.92;;
19406;SDS011;9839;53.364;-1.204;2023-05-23T00:40:40;9.02;;;3.10;;
19406;SDS011;9839;53.364;-1.204;2023-05-23T00:43:06;7.40;;;2.67;;
19406;SDS011;9839;53.364;-1.204;2023-05-23T00:45:32;5.88;;;2.53;;
19406;SDS011;9839;53.364;-1.204;2023-05-23T00:47:58;5.72;;;2.90;;
19406;SDS011;9839;53.364;-1.204;2023-05-23T00:50:24;5.00;;;2.67;;
19406;SDS011;9839;53.364;-1.204;2023-05-23T00:52:53;4.47;;;2.47;;
19406;SDS011;9839;53.364;-1.204;2023-05-23T00:55:19;5.07;;;2.63;;
19406;SDS011;9839;53.364;-1.204;2023-05-23T00:57:44;8.52;;;3.03;;
19406;SDS011;9839;53.364;-1.204;2023-05-23T01:00:11;4.13;;;2.60;;
19406;SDS011;9839;53.364;-1.204;2023-05-23T01:02:38;9.25;;;2.83;;
19406;SDS011;9839;53.364;-1.204;2023-05-23T01:05:07;6.65;;;2.67;;
19406;SDS011;9839;53.364;-1.204;2023-05-23T01:07:35;5.05;;;2.63;;
19406;SDS011;9839;53.364;-1.204;2023-05-23T01:10:00;9.80;;;2.55;;
19406;SDS011;9839;53.364;-1.204;2023-05-23T01:25:08;6.45;;;2.85;;
19406;SDS011;9839;53.364;-1.204;2023-05-23T01:28:02;5.82;;;2.55;;
19406;SDS011;9839;53.364;-1.204;2023-05-23T01:30:34;9.10;;;3.15;;
19406;SDS011;9839;53.364;-1.204;2023-05-23T01:33:04;7.55;;;3.10;;
19406;SDS011;9839;53.364;-1.204;2023-05-23T01:35:30;7.72;;;2.97;;
19406;SDS011;9839;53.364;-1.204;2023-05-23T01:37:55;9.45;;;3.10;;
19406;SDS011;9839;53.364;-1.204;2023-05-23T01:40:24;11.68;;;3.30;;
19406;SDS011;9839;53.364;-1.204;2023-05-23T01:42:51;5.95;;;3.03;;
19406;SDS011;9839;53.364;-1.204;2023-05-23T01:45:17;5.70;;;2.78;;
19406;SDS011;9839;53.364;-1.204;2023-05-23T01:47:42;6.20;;;2.53;;
19406;SDS011;9839;53.364;-1.204;2023-05-23T01:50:09;5.63;;;2.60;;
19406;SDS011;9839;53.364;-1.204;2023-05-23T01:52:35;9.60;;;2.75;;
19406;SDS011;9839;53.364;-1.204;2023-05-23T01:55:02;6.68;;;2.55;;
19406;SDS011;9839;53.364;-1.204;2023-05-23T01:57:34;12.50;;;2.92;;
19406;SDS011;9839;53.364;-1.204;2023-05-23T02:00:00;7.70;;;2.60;;
19406;SDS011;9839;53.364;-1.204;2023-05-23T02:02:26;11.07;;;2.72;;
19406;SDS011;9839;53.364;-1.204;2023-05-23T02:04:52;6.25;;;2.75;;
19406;SDS011;9839;53.364;-1.204;2023-05-23T02:07:18;7.63;;;2.55;;
19406;SDS011;9839;53.364;-1.204;2023-05-23T02:09:47;9.30;;;3.08;;
19406;SDS011;9839;53.364;-1.204;2023-05-23T02:12:12;6.30;;;2.63;;
19406;SDS011;9839;53.364;-1.204;2023-05-23T02:14:38;7.70;;;2.75;;
19406;SDS011;9839;53.364;-1.204;2023-05-23T02:17:03;10.25;;;2.92;;
19406;SDS011;9839;53.364;-1.204;2023-05-23T02:19:29;7.13;;;2.00;;
19406;SDS011;9839;53.364;-1.204;2023-05-23T02:21:54;8.75;;;3.20;;
19406;SDS011;9839;53.364;-1.204;2023-05-23T02:24:20;5.43;;;2.55;;
19406;SDS011;9839;53.364;-1.204;2023-05-23T02:26:45;9.45;;;2.85;;
19406;SDS011;9839;53.364;-1.204;2023-05-23T02:29:11;6.28;;;2.60;;
19406;SDS011;9839;53.364;-1.204;2023-05-23T02:31:36;4.55;;;2.05;;
19406;SDS011;9839;53.364;-1.204;2023-05-23T02:34:01;7.90;;;2.63;;
19406;SDS011;9839;53.364;-1.204;2023-05-23T02:36:27;9.43;;;2.50;;
19406;SDS011;9839;53.364;-1.204;2023-05-23T02:38:52;8.55;;;2.40;;
19406;SDS011;9839;53.364;-1.204;2023-05-23T02:41:18;11.60;;;2.75;;
19406;SDS011;9839;53.364;-1.204;2023-05-23T02:43:45;7.97;;;2.60;;
19406;SDS011;9839;53.364;-1.204;2023-05-23T02:46:11;8.85;;;2.50;;
19406;SDS011;9839;53.364;-1.204;2023-05-23T02:48:37;7.40;;;2.60;;
19406;SDS011;9839;53.364;-1.204;2023-05-23T02:51:03;5.35;;;2.50;;
19406;SDS011;9839;53.364;-1.204;2023-05-23T02:53:28;11.70;;;2.63;;
19406;SDS011;9839;53.364;-1.204;2023-05-23T02:55:53;8.80;;;2.70;;
19406;SDS011;9839;53.364;-1.204;2023-05-23T02:58:19;10.60;;;2.83;;
19406;SDS011;9839;53.364;-1.204;2023-05-23T03:00:44;8.10;;;2.83;;
19406;SDS011;9839;53.364;-1.204;2023-05-23T03:03:10;9.95;;;2.90;;
19406;SDS011;9839;53.364;-1.204;2023-05-23T03:05:35;11.60;;;2.60;;
19406;SDS011;9839;53.364;-1.204;2023-05-23T03:08:01;11.25;;;3.22;;
19406;SDS011;9839;53.364;-1.204;2023-05-23T03:10:27;6.05;;;2.67;;
19406;SDS011;9839;53.364;-1.204;2023-05-23T03:12:52;10.15;;;3.38;;
19406;SDS011;9839;53.364;-1.204;2023-05-23T03:15:18;9.68;;;2.97;;
19406;SDS011;9839;53.364;-1.204;2023-05-23T03:17:43;13.98;;;2.53;;
19406;SDS011;9839;53.364;-1.204;2023-05-23T03:20:09;7.97;;;2.80;;
19406;SDS011;9839;53.364;-1.204;2023-05-23T03:22:35;9.90;;;3.13;;
19406;SDS011;9839;53.364;-1.204;2023-05-23T03:25:00;15.23;;;3.38;;
19406;SDS011;9839;53.364;-1.204;2023-05-23T03:27:26;10.23;;;3.70;;
19406;SDS011;9839;53.364;-1.204;2023-05-23T03:29:51;8.05;;;3.20;;
19406;SDS011;9839;53.364;-1.204;2023-05-23T03:32:17;9.13;;;3.35;;
19406;SDS011;9839;53.364;-1.204;2023-05-23T03:34:42;6.68;;;2.42;;
19406;SDS011;9839;53.364;-1.204;2023-05-23T03:37:07;9.85;;;2.50;;
19406;SDS011;9839;53.364;-1.204;2023-05-23T03:39:33;12.20;;;3.38;;
19406;SDS011;9839;53.364;-1.204;2023-05-23T03:41:58;10.43;;;3.30;;
19406;SDS011;9839;53.364;-1.204;2023-05-23T03:44:23;7.28;;;2.60;;
19406;SDS011;9839;53.364;-1.204;2023-05-23T03:46:49;8.85;;;2.90;;
19406;SDS011;9839;53.364;-1.204;2023-05-23T03:49:15;6.53;;;2.75;;
19406;SDS011;9839;53.364;-1.204;2023-05-23T03:51:40;10.30;;;2.67;;
19406;SDS011;9839;53.364;-1.204;2023-05-23T03:54:05;6.45;;;2.60;;
19406;SDS011;9839;53.364;-1.204;2023-05-23T03:56:31;7.50;;;2.70;;
19406;SDS011;9839;53.364;-1.204;2023-05-23T03:58:56;7.85;;;2.92;;
19406;SDS011;9839;53.364;-1.204;2023-05-23T04:01:22;7.55;;;2.50;;
19406;SDS011;9839;53.364;-1.204;2023-05-23T04:03:47;8.30;;;2.45;;
19406;SDS011;9839;53.364;-1.204;2023-05-23T04:06:13;11.52;;;3.65;;
19406;SDS011;9839;53.364;-1.204;2023-05-23T04:08:38;9.70;;;2.50;;
19406;SDS011;9839;53.364;-1.204;2023-05-23T04:11:06;7.30;;;2.80;;
19406;SDS011;9839;53.364;-1.204;2023-05-23T04:13:31;4.55;;;2.47;;
19406;SDS011;9839;53.364;-1.204;2023-05-23T04:15:58;8.02;;;2.08;;
19406;SDS011;9839;53.364;-1.204;2023-05-23T04:18:25;8.10;;;2.60;;
19406;SDS011;9839;53.364;-1.204;2023-05-23T04:20:52;13.43;;;2.80;;
19406;SDS011;9839;53.364;-1.204;2023-05-23T04:23:18;9.30;;;2.47;;
19406;SDS011;9839;53.364;-1.204;2023-05-23T04:25:43;6.85;;;2.90;;
19406;SDS011;9839;53.364;-1.204;2023-05-23T04:28:10;9.93;;;2.42;;
19406;SDS011;9839;53.364;-1.204;2023-05-23T04:30:36;6.50;;;2.50;;
19406;SDS011;9839;53.364;-1.204;2023-05-23T04:33:02;10.60;;;2.63;;
19406;SDS011;9839;53.364;-1.204;2023-05-23T04:35:27;4.22;;;2.15;;
19406;SDS011;9839;53.364;-1.204;2023-05-23T04:37:56;10.50;;;2.25;;
19406;SDS011;9839;53.364;-1.204;2023-05-23T04:40:22;9.00;;;2.95;;
19406;SDS011;9839;53.364;-1.204;2023-05-23T04:42:48;9.32;;;3.00;;
19406;SDS011;9839;53.364;-1.204;2023-05-23T04:45:15;6.75;;;2.83;;
19406;SDS011;9839;53.364;-1.204;2023-05-23T04:47:40;7.90;;;3.10;;
19406;SDS011;9839;53.364;-1.204;2023-05-23T04:50:06;7.95;;;2.67;;
19406;SDS011;9839;53.364;-1.204;2023-05-23T04:52:32;14.05;;;2.80;;
19406;SDS011;9839;53.364;-1.204;2023-05-23T04:54:59;11.10;;;3.20;;
19406;SDS011;9839;53.364;-1.204;2023-05-23T04:57:25;10.02;;;3.70;;
19406;SDS011;9839;53.364;-1.204;2023-05-23T04:59:50;12.63;;;3.55;;
19406;SDS011;9839;53.364;-1.204;2023-05-23T05:02:16;14.27;;;3.72;;
19406;SDS011;9839;53.364;-1.204;2023-05-23T05:04:41;11.27;;;3.83;;
19406;SDS011;9839;53.364;-1.204;2023-05-23T05:07:07;12.13;;;3.58;;
19406;SDS011;9839;53.364;-1.204;2023-05-23T05:09:32;8.60;;;3.60;;
19406;SDS011;9839;53.364;-1.204;2023-05-23T05:11:58;13.68;;;3.90;;
19406;SDS011;9839;53.364;-1.204;2023-05-23T05:14:24;11.20;;;4.75;;
19406;SDS011;9839;53.364;-1.204;2023-05-23T05:16:50;11.70;;;3.83;;
19406;SDS011;9839;53.364;-1.204;2023-05-23T05:19:15;10.45;;;3.53;;
19406;SDS011;9839;53.364;-1.204;2023-05-23T05:21:41;10.13;;;3.80;;
19406;SDS011;9839;53.364;-1.204;2023-05-23T05:24:06;11.20;;;4.03;;
19406;SDS011;9839;53.364;-1.204;2023-05-23T05:26:35;11.13;;;3.22;;
19406;SDS011;9839;53.364;-1.204;2023-05-23T05:29:01;10.90;;;3.38;;
19406;SDS011;9839;53.364;-1.204;2023-05-23T05:31:26;12.60;;;3.45;;
19406;SDS011;9839;53.364;-1.204;2023-05-23T05:33:53;15.30;;;3.33;;
19406;SDS011;9839;53.364;-1.204;2023-05-23T05:36:18;8.93;;;3.30;;
19406;SDS011;9839;53.364;-1.204;2023-05-23T05:38:44;17.40;;;3.80;;
19406;SDS011;9839;53.364;-1.204;2023-05-23T05:41:09;6.78;;;3.22;;
19406;SDS011;9839;53.364;-1.204;2023-05-23T05:43:35;9.60;;;2.90;;
19406;SDS011;9839;53.364;-1.204;2023-05-23T05:46:00;10.20;;;3.20;;
19406;SDS011;9839;53.364;-1.204;2023-05-23T05:48:26;7.38;;;3.08;;
19406;SDS011;9839;53.364;-1.204;2023-05-23T05:50:51;10.52;;;3.22;;
19406;SDS011;9839;53.364;-1.204;2023-05-23T05:53:17;10.02;;;2.92;;
19406;SDS011;9839;53.364;-1.204;2023-05-23T05:55:42;13.70;;;3.97;;
19406;SDS011;9839;53.364;-1.204;2023-05-23T05:58:07;8.85;;;2.90;;
19406;SDS011;9839;53.364;-1.204;2023-05-23T06:00:33;9.25;;;3.10;;
19406;SDS011;9839;53.364;-1.204;2023-05-23T06:03:05;10.75;;;2.67;;
19406;SDS011;9839;53.364;-1.204;2023-05-23T06:05:31;10.18;;;2.78;;
19406;SDS011;9839;53.364;-1.204;2023-05-23T06:07:56;10.73;;;2.67;;
19406;SDS011;9839;53.364;-1.204;2023-05-23T06:10:22;13.93;;;3.25;;
19406;SDS011;9839;53.364;-1.204;2023-05-23T06:12:48;6.75;;;2.33;;
19406;SDS011;9839;53.364;-1.204;2023-05-23T06:15:14;8.93;;;3.00;;
19406;SDS011;9839;53.364;-1.204;2023-05-23T06:17:40;8.52;;;3.03;;
19406;SDS011;9839;53.364;-1.204;2023-05-23T06:20:06;11.52;;;3.20;;
19406;SDS011;9839;53.364;-1.204;2023-05-23T06:22:32;8.20;;;2.95;;
19406;SDS011;9839;53.364;-1.204;2023-05-23T06:24:57;6.25;;;2.63;;
19406;SDS011;9839;53.364;-1.204;2023-05-23T06:27:23;9.38;;;2.85;;
19406;SDS011;9839;53.364;-1.204;2023-05-23T06:29:48;11.63;;;2.97;;
19406;SDS011;9839;53.364;-1.204;2023-05-23T06:32:14;9.15;;;3.20;;
19406;SDS011;9839;53.364;-1.204;2023-05-23T06:34:40;7.90;;;2.90;;
19406;SDS011;9839;53.364;-1.204;2023-05-23T06:37:05;8.75;;;3.22;;
19406;SDS011;9839;53.364;-1.204;2023-05-23T06:39:30;9.88;;;3.22;;
19406;SDS011;9839;53.364;-1.204;2023-05-23T06:41:56;6.53;;;2.50;;
19406;SDS011;9839;53.364;-1.204;2023-05-23T06:44:21;11.50;;;2.97;;
19406;SDS011;9839;53.364;-1.204;2023-05-23T06:46:47;10.85;;;2.47;;
19406;SDS011;9839;53.364;-1.204;2023-05-23T06:49:13;11.05;;;2.95;;
19406;SDS011;9839;53.364;-1.204;2023-05-23T06:51:39;9.40;;;3.20;;
19406;SDS011;9839;53.364;-1.204;2023-05-23T06:54:05;8.05;;;2.63;;
19406;SDS011;9839;53.364;-1.204;2023-05-23T06:56:30;6.72;;;2.97;;
19406;SDS011;9839;53.364;-1.204;2023-05-23T06:58:56;8.15;;;3.22;;
19406;SDS011;9839;53.364;-1.204;2023-05-23T07:01:21;7.20;;;3.08;;
19406;SDS011;9839;53.364;-1.204;2023-05-23T07:03:47;11.05;;;2.97;;
19406;SDS011;9839;53.364;-1.204;2023-05-23T07:06:12;5.10;;;2.35;;
19406;SDS011;9839;53.364;-1.204;2023-05-23T07:08:38;6.82;;;2.28;;
19406;SDS011;9839;53.364;-1.204;2023-05-23T07:11:03;9.80;;;2.30;;
19406;SDS011;9839;53.364;-1.204;2023-05-23T07:13:30;5.18;;;2.20;;
19406;SDS011;9839;53.364;-1.204;2023-05-23T07:15:56;11.23;;;2.40;;
19406;SDS011;9839;53.364;-1.204;2023-05-23T07:18:22;6.65;;;2.38;;
19406;SDS011;9839;53.364;-1.204;2023-05-23T07:20:47;6.85;;;2.67;;
19406;SDS011;9839;53.364;-1.204;2023-05-23T07:23:13;6.97;;;2.28;;
19406;SDS011;9839;53.364;-1.204;2023-05-23T07:25:39;6.55;;;2.33;;
19406;SDS011;9839;53.364;-1.204;2023-05-23T07:28:06;10.93;;;2.45;;
19406;SDS011;9839;53.364;-1.204;2023-05-23T07:30:32;6.57;;;2.20;;
19406;SDS011;9839;53.364;-1.204;2023-05-23T07:32:58;10.05;;;2.42;;
19406;SDS011;9839;53.364;-1.204;2023-05-23T07:35:23;7.30;;;2.38;;
19406;SDS011;9839;53.364;-1.204;2023-05-23T07:37:53;9.13;;;2.20;;
19406;SDS011;9839;53.364;-1.204;2023-05-23T07:40:19;3.83;;;2.42;;
19406;SDS011;9839;53.364;-1.204;2023-05-23T07:42:46;8.95;;;2.20;;
19406;SDS011;9839;53.364;-1.204;2023-05-23T07:45:11;6.43;;;2.53;;
19406;SDS011;9839;53.364;-1.204;2023-05-23T07:47:37;11.25;;;2.60;;
19406;SDS011;9839;53.364;-1.204;2023-05-23T07:50:03;8.63;;;2.47;;
19406;SDS011;9839;53.364;-1.204;2023-05-23T07:52:29;8.73;;;2.50;;
19406;SDS011;9839;53.364;-1.204;2023-05-23T07:54:55;6.68;;;2.15;;
19406;SDS011;9839;53.364;-1.204;2023-05-23T07:57:21;10.15;;;2.53;;
19406;SDS011;9839;53.364;-1.204;2023-05-23T07:59:48;8.07;;;1.92;;
19406;SDS011;9839;53.364;-1.204;2023-05-23T08:02:14;7.97;;;2.97;;
19406;SDS011;9839;53.364;-1.204;2023-05-23T08:04:39;10.15;;;2.08;;
19406;SDS011;9839;53.364;-1.204;2023-05-23T08:07:05;6.40;;;2.20;;
19406;SDS011;9839;53.364;-1.204;2023-05-23T08:09:32;4.38;;;2.13;;
19406;SDS011;9839;53.364;-1.204;2023-05-23T08:11:57;3.72;;;1.70;;
19406;SDS011;9839;53.364;-1.204;2023-05-23T08:14:23;6.03;;;2.10;;
19406;SDS011;9839;53.364;-1.204;2023-05-23T08:16:48;6.53;;;1.73;;
19406;SDS011;9839;53.364;-1.204;2023-05-23T08:19:14;4.05;;;1.90;;
19406;SDS011;9839;53.364;-1.204;2023-05-23T08:21:39;2.72;;;1.45;;
19406;SDS011;9839;53.364;-1.204;2023-05-23T08:24:05;4.65;;;2.10;;
19406;SDS011;9839;53.364;-1.204;2023-05-23T08:26:31;6.00;;;1.98;;
19406;SDS011;9839;53.364;-1.204;2023-05-23T08:28:59;6.32;;;1.90;;
19406;SDS011;9839;53.364;-1.204;2023-05-23T08:31:26;7.07;;;1.75;;
19406;SDS011;9839;53.364;-1.204;2023-05-23T08:33:52;1.88;;;1.10;;
19406;SDS011;9839;53.364;-1.204;2023-05-23T08:36:18;5.72;;;2.00;;
19406;SDS011;9839;53.364;-1.204;2023-05-23T08:38:43;6.40;;;1.95;;
19406;SDS011;9839;53.364;-1.204;2023-05-23T08:41:12;5.78;;;1.77;;
19406;SDS011;9839;53.364;-1.204;2023-05-23T08:43:42;7.20;;;2.38;;
19406;SDS011;9839;53.364;-1.204;2023-05-23T08:46:08;3.25;;;1.60;;
19406;SDS011;9839;53.364;-1.204;2023-05-23T08:48:33;4.75;;;1.92;;
19406;SDS011;9839;53.364;-1.204;2023-05-23T08:51:02;6.28;;;2.10;;
19406;SDS011;9839;53.364;-1.204;2023-05-23T08:53:27;3.50;;;1.60;;
19406;SDS011;9839;53.364;-1.204;2023-05-23T08:55:53;5.10;;;1.90;;
19406;SDS011;9839;53.364;-1.204;2023-05-23T08:58:20;5.38;;;1.95;;
19406;SDS011;9839;53.364;-1.204;2023-05-23T09:00:46;5.35;;;1.60;;
19406;SDS011;9839;53.364;-1.204;2023-05-23T09:03:12;3.97;;;1.63;;
19406;SDS011;9839;53.364;-1.204;2023-05-23T09:05:38;6.75;;;1.60;;
19406;SDS011;9839;53.364;-1.204;2023-05-23T09:08:04;8.70;;;2.42;;
19406;SDS011;9839;53.364;-1.204;2023-05-23T09:10:29;6.85;;;2.25;;
19406;SDS011;9839;53.364;-1.204;2023-05-23T09:12:55;5.55;;;2.08;;
19406;SDS011;9839;53.364;-1.204;2023-05-23T09:15:22;5.70;;;1.80;;
19406;SDS011;9839;53.364;-1.204;2023-05-23T09:17:48;9.00;;;1.70;;
19406;SDS011;9839;53.364;-1.204;2023-05-23T09:20:14;7.07;;;1.80;;
19406;SDS011;9839;53.364;-1.204;2023-05-23T09:22:44;5.28;;;2.13;;
19406;SDS011;9839;53.364;-1.204;2023-05-23T09:25:11;6.72;;;1.85;;
19406;SDS011;9839;53.364;-1.204;2023-05-23T09:27:37;5.55;;;1.90;;
19406;SDS011;9839;53.364;-1.204;2023-05-23T09:30:06;9.43;;;1.90;;
19406;SDS011;9839;53.364;-1.204;2023-05-23T09:32:33;4.63;;;1.50;;
19406;SDS011;9839;53.364;-1.204;2023-05-23T09:34:59;5.50;;;1.70;;
19406;SDS011;9839;53.364;-1.204;2023-05-23T09:37:35;5.25;;;2.17;;
19406;SDS011;9839;53.364;-1.204;2023-05-23T09:40:06;7.90;;;2.08;;
19406;SDS011;9839;53.364;-1.204;2023-05-23T09:42:43;5.70;;;1.88;;
19406;SDS011;9839;53.364;-1.204;2023-05-23T09:45:12;4.05;;;1.80;;
19406;SDS011;9839;53.364;-1.204;2023-05-23T09:47:47;6.90;;;1.98;;
19406;SDS011;9839;53.364;-1.204;2023-05-23T09:50:19;8.77;;;1.95;;
19406;SDS011;9839;53.364;-1.204;2023-05-23T09:52:45;6.70;;;2.35;;
19406;SDS011;9839;53.364;-1.204;2023-05-23T09:55:11;8.85;;;2.10;;
19406;SDS011;9839;53.364;-1.204;2023-05-23T09:57:37;6.38;;;2.10;;
19406;SDS011;9839;53.364;-1.204;2023-05-23T10:00:05;5.88;;;2.17;;
19406;SDS011;9839;53.364;-1.204;2023-05-23T10:05:45;6.65;;;1.98;;
19406;SDS011;9839;53.364;-1.204;2023-05-23T10:08:34;5.35;;;1.85;;
19406;SDS011;9839;53.364;-1.204;2023-05-23T10:13:44;8.88;;;2.03;;
19406;SDS011;9839;53.364;-1.204;2023-05-23T10:16:35;11.63;;;1.80;;
19406;SDS011;9839;53.364;-1.204;2023-05-23T10:19:16;5.80;;;1.90;;
19406;SDS011;9839;53.364;-1.204;2023-05-23T10:21:48;7.28;;;2.50;;
19406;SDS011;9839;53.364;-1.204;2023-05-23T10:24:15;7.22;;;2.40;;
19406;SDS011;9839;53.364;-1.204;2023-05-23T10:26:41;5.38;;;1.83;;
19406;SDS011;9839;53.364;-1.204;2023-05-23T10:29:08;5.47;;;2.10;;
19406;SDS011;9839;53.364;-1.204;2023-05-23T10:31:33;4.93;;;2.13;;
19406;SDS011;9839;53.364;-1.204;2023-05-23T10:37:17;6.72;;;1.90;;
19406;SDS011;9839;53.364;-1.204;2023-05-23T10:42:22;3.97;;;1.80;;
19406;SDS011;9839;53.364;-1.204;2023-05-23T10:45:14;7.47;;;2.22;;
19406;SDS011;9839;53.364;-1.204;2023-05-23T10:47:41;6.30;;;2.03;;
19406;SDS011;9839;53.364;-1.204;2023-05-23T10:50:10;6.82;;;1.90;;
19406;SDS011;9839;53.364;-1.204;2023-05-23T10:52:40;9.07;;;2.55;;
19406;SDS011;9839;53.364;-1.204;2023-05-23T10:55:12;4.68;;;1.90;;
19406;SDS011;9839;53.364;-1.204;2023-05-23T10:57:39;6.80;;;2.28;;
19406;SDS011;9839;53.364;-1.204;2023-05-23T11:00:16;6.25;;;2.20;;
19406;SDS011;9839;53.364;-1.204;2023-05-23T11:02:52;6.45;;;2.30;;
19406;SDS011;9839;53.364;-1.204;2023-05-23T11:08:05;5.03;;;2.30;;
19406;SDS011;9839;53.364;-1.204;2023-05-23T11:10:53;6.20;;;1.95;;
19406;SDS011;9839;53.364;-1.204;2023-05-23T11:13:53;7.18;;;3.10;;
19406;SDS011;9839;53.364;-1.204;2023-05-23T11:16:27;7.60;;;2.72;;
19406;SDS011;9839;53.364;-1.204;2023-05-23T11:21:48;5.68;;;2.55;;
19406;SDS011;9839;53.364;-1.204;2023-05-23T11:24:14;6.90;;;2.65;;
19406;SDS011;9839;53.364;-1.204;2023-05-23T11:26:50;6.50;;;2.40;;
19406;SDS011;9839;53.364;-1.204;2023-05-23T11:29:18;9.02;;;2.67;;
19406;SDS011;9839;53.364;-1.204;2023-05-23T11:31:43;6.45;;;2.70;;
19406;SDS011;9839;53.364;-1.204;2023-05-23T11:34:09;6.40;;;2.53;;
19406;SDS011;9839;53.364;-1.204;2023-05-23T11:36:36;5.35;;;2.13;;
19406;SDS011;9839;53.364;-1.204;2023-05-23T11:39:02;7.53;;;2.50;;
19406;SDS011;9839;53.364;-1.204;2023-05-23T11:41:29;9.68;;;3.72;;
19406;SDS011;9839;53.364;-1.204;2023-05-23T11:43:54;5.13;;;2.58;;
19406;SDS011;9839;53.364;-1.204;2023-05-23T11:46:20;6.15;;;2.50;;
19406;SDS011;9839;53.364;-1.204;2023-05-23T11:48:46;7.05;;;3.10;;
19406;SDS011;9839;53.364;-1.204;2023-05-23T11:51:12;6.82;;;2.65;;
19406;SDS011;9839;53.364;-1.204;2023-05-23T11:53:38;9.93;;;3.00;;
19406;SDS011;9839;53.364;-1.204;2023-05-23T11:56:04;4.75;;;2.50;;
19406;SDS011;9839;53.364;-1.204;2023-05-23T11:58:30;7.70;;;2.47;;
19406;SDS011;9839;53.364;-1.204;2023-05-23T12:01:07;8.45;;;2.70;;
19406;SDS011;9839;53.364;-1.204;2023-05-23T12:03:34;6.88;;;2.40;;
19406;SDS011;9839;53.364;-1.204;2023-05-23T12:06:10;11.00;;;2.47;;
19406;SDS011;9839;53.364;-1.204;2023-05-23T12:08:35;11.15;;;3.22;;
19406;SDS011;9839;53.364;-1.204;2023-05-23T12:11:01;8.25;;;2.38;;
19406;SDS011;9839;53.364;-1.204;2023-05-23T12:13:27;6.25;;;2.95;;
19406;SDS011;9839;53.364;-1.204;2023-05-23T12:15:57;14.80;;;3.13;;
19406;SDS011;9839;53.364;-1.204;2023-05-23T12:18:26;6.00;;;2.60;;
19406;SDS011;9839;53.364;-1.204;2023-05-23T12:20:52;7.10;;;3.13;;
19406;SDS011;9839;53.364;-1.204;2023-05-23T12:23:18;7.45;;;3.10;;
19406;SDS011;9839;53.364;-1.204;2023-05-23T12:25:54;8.93;;;3.20;;
19406;SDS011;9839;53.364;-1.204;2023-05-23T12:28:20;6.95;;;3.13;;
19406;SDS011;9839;53.364;-1.204;2023-05-23T12:30:47;6.03;;;2.67;;
19406;SDS011;9839;53.364;-1.204;2023-05-23T12:33:13;9.30;;;3.42;;
19406;SDS011;9839;53.364;-1.204;2023-05-23T12:35:42;11.23;;;2.80;;
19406;SDS011;9839;53.364;-1.204;2023-05-23T12:38:09;8.48;;;2.78;;
19406;SDS011;9839;53.364;-1.204;2023-05-23T12:40:34;5.70;;;3.10;;
19406;SDS011;9839;53.364;-1.204;2023-05-23T12:43:00;6.50;;;2.67;;
19406;SDS011;9839;53.364;-1.204;2023-05-23T12:45:35;6.40;;;2.67;;
19406;SDS011;9839;53.364;-1.204;2023-05-23T12:48:04;5.15;;;2.95;;
19406;SDS011;9839;53.364;-1.204;2023-05-23T12:50:31;9.80;;;2.72;;
19406;SDS011;9839;53.364;-1.204;2023-05-23T12:52:57;8.27;;;2.70;;
19406;SDS011;9839;53.364;-1.204;2023-05-23T12:55:22;10.48;;;3.72;;
19406;SDS011;9839;53.364;-1.204;2023-05-23T12:57:48;8.95;;;2.95;;
19406;SDS011;9839;53.364;-1.204;2023-05-23T13:00:13;7.03;;;2.40;;
19406;SDS011;9839;53.364;-1.204;2023-05-23T13:02:39;7.57;;;3.28;;
19406;SDS011;9839;53.364;-1.204;2023-05-23T13:05:05;9.55;;;2.90;;
19406;SDS011;9839;53.364;-1.204;2023-05-23T13:07:31;6.38;;;3.05;;
19406;SDS011;9839;53.364;-1.204;2023-05-23T13:09:56;5.93;;;3.03;;
19406;SDS011;9839;53.364;-1.204;2023-05-23T13:12:22;7.82;;;2.97;;
19406;SDS011;9839;53.364;-1.204;2023-05-23T13:14:48;4.85;;;2.30;;
19406;SDS011;9839;53.364;-1.204;2023-05-23T13:17:14;7.15;;;2.72;;
19406;SDS011;9839;53.364;-1.204;2023-05-23T13:19:40;12.82;;;2.80;;
19406;SDS011;9839;53.364;-1.204;2023-05-23T13:22:06;5.88;;;2.80;;
19406;SDS011;9839;53.364;-1.204;2023-05-23T13:24:35;9.35;;;3.05;;
19406;SDS011;9839;53.364;-1.204;2023-05-23T13:27:01;4.88;;;3.20;;
19406;SDS011;9839;53.364;-1.204;2023-05-23T13:29:27;6.32;;;2.67;;
19406;SDS011;9839;53.364;-1.204;2023-05-23T13:31:53;8.10;;;2.97;;
19406;SDS011;9839;53.364;-1.204;2023-05-23T13:34:18;8.60;;;2.95;;
19406;SDS011;9839;53.364;-1.204;2023-05-23T13:36:44;8.18;;;3.40;;
19406;SDS011;9839;53.364;-1.204;2023-05-23T13:39:09;4.97;;;2.78;;
19406;SDS011;9839;53.364;-1.204;2023-05-23T13:41:35;9.48;;;3.10;;
19406;SDS011;9839;53.364;-1.204;2023-05-23T13:44:00;8.38;;;2.70;;
19406;SDS011;9839;53.364;-1.204;2023-05-23T13:46:25;7.55;;;2.75;;
19406;SDS011;9839;53.364;-1.204;2023-05-23T13:48:51;9.80;;;3.58;;
19406;SDS011;9839;53.364;-1.204;2023-05-23T13:51:17;7.25;;;3.10;;
19406;SDS011;9839;53.364;-1.204;2023-05-23T13:53:42;8.18;;;3.00;;
19406;SDS011;9839;53.364;-1.204;2023-05-23T13:56:08;9.68;;;3.28;;
19406;SDS011;9839;53.364;-1.204;2023-05-23T13:58:34;8.15;;;3.17;;
19406;SDS011;9839;53.364;-1.204;2023-05-23T14:00:59;6.97;;;2.70;;
19406;SDS011;9839;53.364;-1.204;2023-05-23T14:03:24;8.25;;;3.22;;
19406;SDS011;9839;53.364;-1.204;2023-05-23T14:05:50;6.82;;;2.97;;
19406;SDS011;9839;53.364;-1.204;2023-05-23T14:08:16;7.20;;;3.15;;
19406;SDS011;9839;53.364;-1.204;2023-05-23T14:10:41;9.63;;;2.88;;
19406;SDS011;9839;53.364;-1.204;2023-05-23T14:13:06;6.32;;;3.53;;
19406;SDS011;9839;53.364;-1.204;2023-05-23T14:15:32;12.35;;;3.70;;
19406;SDS011;9839;53.364;-1.204;2023-05-23T14:17:58;8.68;;;3.75;;
19406;SDS011;9839;53.364;-1.204;2023-05-23T14:20:23;4.93;;;2.80;;
19406;SDS011;9839;53.364;-1.204;2023-05-23T14:22:49;7.90;;;3.47;;
19406;SDS011;9839;53.364;-1.204;2023-05-23T14:25:15;5.90;;;2.78;;
19406;SDS011;9839;53.364;-1.204;2023-05-23T14:27:41;11.18;;;3.47;;
19406;SDS011;9839;53.364;-1.204;2023-05-23T14:30:07;11.95;;;3.22;;
19406;SDS011;9839;53.364;-1.204;2023-05-23T14:32:33;6.95;;;3.13;;
19406;SDS011;9839;53.364;-1.204;2023-05-23T14:35:03;7.20;;;3.00;;
19406;SDS011;9839;53.364;-1.204;2023-05-23T14:37:31;5.82;;;3.05;;
19406;SDS011;9839;53.364;-1.204;2023-05-23T14:39:57;8.45;;;3.15;;
19406;SDS011;9839;53.364;-1.204;2023-05-23T14:42:22;13.05;;;3.50;;
19406;SDS011;9839;53.364;-1.204;2023-05-23T14:44:48;9.95;;;3.47;;
19406;SDS011;9839;53.364;-1.204;2023-05-23T14:47:13;7.18;;;3.15;;
19406;SDS011;9839;53.364;-1.204;2023-05-23T14:49:39;9.10;;;3.45;;
19406;SDS011;9839;53.364;-1.204;2023-05-23T14:52:04;7.93;;;3.17;;
19406;SDS011;9839;53.364;-1.204;2023-05-23T14:54:30;13.75;;;3.28;;
19406;SDS011;9839;53.364;-1.204;2023-05-23T14:56:56;6.45;;;3.28;;
19406;SDS011;9839;53.364;-1.204;2023-05-23T14:59:21;8.02;;;3.10;;
19406;SDS011;9839;53.364;-1.204;2023-05-23T15:01:47;6.85;;;3.53;;
19406;SDS011;9839;53.364;-1.204;2023-05-23T15:04:13;8.20;;;3.38;;
19406;SDS011;9839;53.364;-1.204;2023-05-23T15:06:38;8.60;;;3.55;;
19406;SDS011;9839;53.364;-1.204;2023-05-23T15:09:04;6.35;;;3.58;;
19406;SDS011;9839;53.364;-1.204;2023-05-23T15:11:30;7.03;;;4.05;;
19406;SDS011;9839;53.364;-1.204;2023-05-23T15:13:56;10.73;;;4.80;;